createdAt,value
2022-10-06T00:00:11.063Z,0.00
2022-10-06T00:01:13.144Z,0.00
2022-10-06T00:02:11.107Z,0.00
2022-10-06T00:03:11.062Z,0.00
2022-10-06T00:04:11.064Z,0.00
2022-10-06T00:05:11.068Z,0.00
2022-10-06T00:06:11.063Z,0.00
2022-10-06T00:07:11.064Z,0.00
2022-10-06T00:08:11.069Z,0.00
2022-10-06T00:09:11.059Z,0.00
2022-10-06T00:10:11.065Z,0.00
2022-10-06T00:11:11.070Z,0.00
2022-10-06T00:12:11.060Z,0.00
2022-10-06T00:13:11.062Z,0.00
2022-10-06T00:14:11.063Z,0.00
2022-10-06T00:15:11.059Z,0.00
2022-10-06T00:16:11.149Z,0.00
2022-10-06T00:17:11.070Z,0.00
2022-10-06T00:18:11.061Z,0.00
2022-10-06T00:19:11.061Z,0.00
2022-10-06T00:20:11.068Z,0.00
2022-10-06T00:21:11.056Z,0.00
2022-10-06T00:22:11.062Z,0.00
2022-10-06T00:23:11.065Z,0.00
2022-10-06T00:24:11.057Z,0.00
2022-10-06T00:25:11.061Z,0.00
2022-10-06T00:26:15.066Z,0.00
2022-10-06T00:27:11.059Z,0.00
2022-10-06T00:28:11.120Z,0.00
2022-10-06T00:29:11.061Z,0.00
2022-10-06T00:30:11.059Z,0.00
2022-10-06T00:31:11.148Z,0.00
2022-10-06T00:32:13.066Z,0.00
2022-10-06T00:33:13.060Z,0.00
2022-10-06T00:34:11.058Z,0.00
2022-10-06T00:35:11.063Z,0.00
2022-10-06T00:36:11.067Z,0.00
2022-10-06T00:37:11.059Z,0.00
2022-10-06T00:38:12.059Z,0.00
2022-10-06T00:39:11.061Z,0.00
2022-10-06T00:40:13.059Z,0.00
2022-10-06T00:41:14.062Z,0.00
2022-10-06T00:42:19.060Z,0.00
2022-10-06T00:43:19.060Z,0.00
2022-10-06T00:44:11.055Z,0.00
2022-10-06T00:45:11.059Z,0.00
2022-10-06T00:46:15.088Z,0.00
2022-10-06T00:47:11.058Z,0.00
2022-10-06T00:48:16.065Z,0.00
2022-10-06T00:49:19.062Z,0.00
2022-10-06T00:50:11.062Z,0.00
2022-10-06T00:51:11.056Z,0.00
2022-10-06T00:52:14.068Z,0.00
2022-10-06T00:53:11.063Z,0.00
2022-10-06T00:54:11.056Z,0.00
2022-10-06T00:55:13.068Z,0.00
2022-10-06T00:56:11.062Z,0.00
2022-10-06T00:57:11.057Z,0.00
2022-10-06T00:58:11.062Z,0.00
2022-10-06T00:59:17.065Z,0.00
2022-10-06T01:00:11.058Z,0.00
2022-10-06T01:01:11.104Z,0.00
2022-10-06T01:02:19.154Z,0.00
2022-10-06T01:03:17.062Z,0.00
2022-10-06T01:04:14.060Z,0.00
2022-10-06T01:05:11.072Z,0.00
2022-10-06T01:06:11.064Z,0.00
2022-10-06T01:07:11.060Z,0.00
2022-10-06T01:08:11.063Z,0.00
2022-10-06T01:09:11.062Z,0.00
2022-10-06T01:10:11.059Z,0.00
2022-10-06T01:11:14.060Z,0.00
2022-10-06T01:12:11.068Z,0.00
2022-10-06T01:13:11.061Z,0.00
2022-10-06T01:14:11.058Z,0.00
2022-10-06T01:15:11.069Z,0.00
2022-10-06T01:16:19.111Z,0.00
2022-10-06T01:17:16.059Z,0.00
2022-10-06T01:18:13.063Z,0.00
2022-10-06T01:19:17.064Z,0.00
2022-10-06T01:20:12.067Z,0.00
2022-10-06T01:21:19.061Z,0.00
2022-10-06T01:22:12.058Z,0.00
2022-10-06T01:23:11.058Z,0.00
2022-10-06T01:24:11.054Z,0.00
2022-10-06T01:25:11.058Z,0.00
2022-10-06T01:26:11.059Z,0.00
2022-10-06T01:27:12.056Z,0.00
2022-10-06T01:28:11.139Z,0.00
2022-10-06T01:29:11.067Z,0.00
2022-10-06T01:30:13.057Z,0.00
2022-10-06T01:31:11.122Z,0.00
2022-10-06T01:32:11.069Z,0.00
2022-10-06T01:33:11.059Z,0.00
2022-10-06T01:34:11.060Z,0.00
2022-10-06T01:35:11.078Z,0.00
2022-10-06T01:36:11.061Z,0.00
2022-10-06T01:37:11.061Z,0.00
2022-10-06T01:38:11.068Z,0.00
2022-10-06T01:39:11.061Z,0.00
2022-10-06T01:40:11.079Z,0.00
2022-10-06T01:41:11.067Z,0.00
2022-10-06T01:42:11.069Z,0.00
2022-10-06T01:43:11.058Z,0.00
2022-10-06T01:44:11.076Z,0.00
2022-10-06T01:45:11.066Z,0.00
2022-10-06T01:46:11.148Z,0.00
2022-10-06T01:47:11.062Z,0.00
2022-10-06T01:48:11.060Z,0.00
2022-10-06T01:49:11.056Z,0.00
2022-10-06T01:50:11.068Z,0.00
2022-10-06T01:51:14.062Z,0.00
2022-10-06T01:52:11.061Z,0.00
2022-10-06T01:53:11.063Z,0.00
2022-10-06T01:54:11.067Z,0.00
2022-10-06T01:55:11.060Z,0.00
2022-10-06T01:56:11.062Z,0.00
2022-10-06T01:57:11.064Z,0.00
2022-10-06T01:58:11.065Z,0.00
2022-10-06T01:59:11.061Z,0.00
2022-10-06T02:00:11.066Z,0.00
2022-10-06T02:01:11.232Z,0.00
2022-10-06T02:02:11.098Z,0.00
2022-10-06T02:03:11.062Z,0.00
2022-10-06T02:04:11.164Z,0.00
2022-10-06T02:05:11.061Z,0.00
2022-10-06T02:06:11.128Z,0.00
2022-10-06T02:07:11.060Z,0.00
2022-10-06T02:08:11.061Z,0.00
2022-10-06T02:09:11.063Z,0.00
2022-10-06T02:10:11.063Z,0.00
2022-10-06T02:11:11.063Z,0.00
2022-10-06T02:12:11.064Z,0.00
2022-10-06T02:13:11.060Z,0.00
2022-10-06T02:14:11.062Z,0.00
2022-10-06T02:15:11.101Z,0.00
2022-10-06T02:16:11.134Z,0.00
2022-10-06T02:17:11.063Z,0.00
2022-10-06T02:18:11.064Z,0.00
2022-10-06T02:19:11.060Z,0.00
2022-10-06T02:20:11.063Z,0.00
2022-10-06T02:21:17.058Z,0.00
2022-10-06T02:22:11.058Z,0.00
2022-10-06T02:23:11.060Z,0.00
2022-10-06T02:24:11.065Z,0.00
2022-10-06T02:25:11.059Z,0.00
2022-10-06T02:26:11.060Z,0.00
2022-10-06T02:27:11.061Z,0.00
2022-10-06T02:28:11.114Z,0.00
2022-10-06T02:29:11.056Z,0.00
2022-10-06T02:30:11.056Z,0.00
2022-10-06T02:31:11.126Z,0.00
2022-10-06T02:32:11.058Z,0.00
2022-10-06T02:33:11.063Z,0.00
2022-10-06T02:34:11.059Z,0.00
2022-10-06T02:35:11.058Z,0.00
2022-10-06T02:36:11.063Z,0.00
2022-10-06T02:37:11.060Z,0.00
2022-10-06T02:38:11.058Z,0.00
2022-10-06T02:39:11.061Z,0.00
2022-10-06T02:40:11.062Z,0.00
2022-10-06T02:41:11.059Z,0.00
2022-10-06T02:42:11.059Z,0.00
2022-10-06T02:43:11.059Z,0.00
2022-10-06T02:44:11.058Z,0.00
2022-10-06T02:45:11.060Z,0.00
2022-10-06T02:46:12.216Z,0.01
2022-10-06T02:47:12.058Z,0.00
2022-10-06T02:48:11.059Z,0.00
2022-10-06T02:49:11.064Z,0.00
2022-10-06T02:50:11.059Z,0.00
2022-10-06T02:51:16.070Z,0.00
2022-10-06T02:52:11.071Z,0.00
2022-10-06T02:53:12.058Z,0.00
2022-10-06T02:54:11.063Z,0.00
2022-10-06T02:55:11.068Z,0.00
2022-10-06T02:56:11.062Z,0.00
2022-10-06T02:57:11.057Z,0.00
2022-10-06T02:58:11.064Z,0.00
2022-10-06T02:59:11.064Z,0.00
2022-10-06T03:00:11.064Z,0.00
2022-10-06T03:01:21.132Z,0.00
2022-10-06T03:02:11.236Z,0.00
2022-10-06T03:03:11.060Z,0.00
2022-10-06T03:04:11.063Z,0.00
2022-10-06T03:05:11.070Z,0.00
2022-10-06T03:06:20.058Z,0.00
2022-10-06T03:07:11.061Z,0.00
2022-10-06T03:08:11.063Z,0.00
2022-10-06T03:09:11.079Z,0.00
2022-10-06T03:10:11.056Z,0.00
2022-10-06T03:11:11.065Z,0.00
2022-10-06T03:12:11.060Z,0.00
2022-10-06T03:13:11.060Z,0.00
2022-10-06T03:14:11.061Z,0.00
2022-10-06T03:15:11.062Z,0.00
2022-10-06T03:16:15.141Z,0.00
2022-10-06T03:17:11.061Z,0.00
2022-10-06T03:18:11.069Z,0.00
2022-10-06T03:19:11.060Z,0.00
2022-10-06T03:20:11.060Z,0.00
2022-10-06T03:21:11.064Z,0.00
2022-10-06T03:22:11.055Z,0.00
2022-10-06T03:23:13.524Z,0.00
2022-10-06T03:24:11.066Z,0.00
2022-10-06T03:25:11.057Z,0.00
2022-10-06T03:26:11.063Z,0.00
2022-10-06T03:27:11.065Z,0.00
2022-10-06T03:28:11.116Z,0.00
2022-10-06T03:29:11.912Z,0.00
2022-10-06T03:30:11.065Z,0.00
2022-10-06T03:31:11.136Z,0.00
2022-10-06T03:32:11.054Z,0.00
2022-10-06T03:33:11.062Z,0.00
2022-10-06T03:34:11.064Z,0.00
2022-10-06T03:35:11.056Z,0.00
2022-10-06T03:36:12.060Z,0.00
2022-10-06T03:37:11.069Z,0.00
2022-10-06T03:38:11.055Z,0.00
2022-10-06T03:39:11.060Z,0.00
2022-10-06T03:40:11.061Z,0.00
2022-10-06T03:41:15.058Z,0.00
2022-10-06T03:42:11.058Z,0.00
2022-10-06T03:43:11.062Z,0.00
2022-10-06T03:44:11.057Z,0.00
2022-10-06T03:45:11.059Z,0.00
2022-10-06T03:46:12.106Z,0.00
2022-10-06T03:47:16.110Z,0.00
2022-10-06T03:48:13.861Z,0.00
2022-10-06T03:49:11.068Z,0.00
2022-10-06T03:50:11.062Z,0.00
2022-10-06T03:51:14.062Z,0.00
2022-10-06T03:52:11.061Z,0.00
2022-10-06T03:53:11.060Z,0.00
2022-10-06T03:54:11.095Z,0.00
2022-10-06T03:55:11.062Z,0.00
2022-10-06T03:56:15.061Z,0.00
2022-10-06T03:57:11.056Z,0.00
2022-10-06T03:58:11.063Z,0.00
2022-10-06T03:59:12.060Z,0.00
2022-10-06T04:00:11.058Z,0.00
2022-10-06T04:01:13.257Z,0.00
2022-10-06T04:02:11.171Z,0.00
2022-10-06T04:03:11.060Z,0.00
2022-10-06T04:04:11.062Z,0.00
2022-10-06T04:05:11.062Z,0.00
2022-10-06T04:06:13.061Z,0.00
2022-10-06T04:07:11.063Z,0.00
2022-10-06T04:08:11.069Z,0.00
2022-10-06T04:09:14.913Z,0.00
2022-10-06T04:10:11.062Z,0.00
2022-10-06T04:11:18.062Z,0.00
2022-10-06T04:12:11.059Z,0.00
2022-10-06T04:13:11.065Z,0.00
2022-10-06T04:14:14.071Z,0.00
2022-10-06T04:15:11.063Z,0.00
2022-10-06T04:16:17.097Z,0.00
2022-10-06T04:17:11.070Z,0.00
2022-10-06T04:18:11.063Z,0.00
2022-10-06T04:19:11.066Z,0.00
2022-10-06T04:20:11.064Z,0.00
2022-10-06T04:21:11.058Z,0.00
2022-10-06T04:22:11.055Z,0.00
2022-10-06T04:23:11.057Z,0.00
2022-10-06T04:24:11.059Z,0.00
2022-10-06T04:25:11.055Z,0.00
2022-10-06T04:26:17.058Z,0.00
2022-10-06T04:27:15.070Z,0.00
2022-10-06T04:28:11.126Z,0.00
2022-10-06T04:29:11.054Z,0.00
2022-10-06T04:30:11.061Z,0.00
2022-10-06T04:31:18.107Z,0.00
2022-10-06T04:32:11.057Z,0.00
2022-10-06T04:33:11.065Z,0.00
2022-10-06T04:34:11.065Z,0.00
2022-10-06T04:35:11.059Z,0.00
2022-10-06T04:36:12.062Z,0.00
2022-10-06T04:37:11.062Z,0.00
2022-10-06T04:38:11.061Z,0.00
2022-10-06T04:39:11.056Z,0.00
2022-10-06T04:40:11.061Z,0.00
2022-10-06T04:41:14.060Z,0.00
2022-10-06T04:42:11.058Z,0.00
2022-10-06T04:43:11.060Z,0.00
2022-10-06T04:44:11.066Z,0.00
2022-10-06T04:45:11.058Z,0.00
2022-10-06T04:46:30.659Z,0.00
2022-10-06T04:47:13.085Z,0.00
2022-10-06T04:48:11.060Z,0.00
2022-10-06T04:49:17.565Z,0.00
2022-10-06T04:50:13.077Z,0.00
2022-10-06T04:51:15.061Z,0.00
2022-10-06T04:52:11.061Z,0.00
2022-10-06T04:53:11.056Z,0.00
2022-10-06T04:54:11.069Z,0.00
2022-10-06T04:55:11.065Z,0.00
2022-10-06T04:56:12.058Z,0.00
2022-10-06T04:57:11.063Z,0.00
2022-10-06T04:58:11.061Z,0.00
2022-10-06T04:59:11.058Z,0.00
2022-10-06T05:00:15.326Z,0.00
2022-10-06T05:01:19.132Z,0.00
2022-10-06T05:02:11.129Z,0.00
2022-10-06T05:03:11.068Z,0.00
2022-10-06T05:04:11.069Z,0.00
2022-10-06T05:05:11.063Z,0.00
2022-10-06T05:06:15.064Z,0.00
2022-10-06T05:07:11.067Z,0.00
2022-10-06T05:08:11.061Z,0.00
2022-10-06T05:09:11.076Z,0.00
2022-10-06T05:10:11.061Z,0.00
2022-10-06T05:11:15.028Z,0.00
2022-10-06T05:12:13.104Z,0.00
2022-10-06T05:13:11.071Z,0.00
2022-10-06T05:14:11.065Z,0.00
2022-10-06T05:15:11.060Z,0.00
2022-10-06T05:16:12.108Z,0.00
2022-10-06T05:17:11.069Z,0.00
2022-10-06T05:18:11.059Z,0.00
2022-10-06T05:19:11.061Z,0.00
2022-10-06T05:20:11.063Z,0.00
2022-10-06T05:21:12.056Z,0.00
2022-10-06T05:22:11.057Z,0.00
2022-10-06T05:23:11.061Z,0.00
2022-10-06T05:24:11.057Z,0.00
2022-10-06T05:25:11.056Z,0.00
2022-10-06T05:26:14.058Z,0.00
2022-10-06T05:27:11.057Z,0.00
2022-10-06T05:28:11.159Z,0.00
2022-10-06T05:29:11.082Z,0.00
2022-10-06T05:30:11.056Z,0.00
2022-10-06T05:31:14.162Z,0.00
2022-10-06T05:32:11.065Z,0.00
2022-10-06T05:33:11.056Z,0.00
2022-10-06T05:34:11.060Z,0.00
2022-10-06T05:35:11.073Z,0.00
2022-10-06T05:36:14.060Z,0.00
2022-10-06T05:37:11.059Z,0.01
2022-10-06T05:38:11.058Z,0.00
2022-10-06T05:39:11.064Z,0.00
2022-10-06T05:40:11.057Z,0.00
2022-10-06T05:41:14.060Z,0.00
2022-10-06T05:42:11.061Z,0.00
2022-10-06T05:43:11.059Z,0.00
2022-10-06T05:44:11.060Z,0.00
2022-10-06T05:45:11.062Z,0.00
2022-10-06T05:46:14.119Z,0.00
2022-10-06T05:47:11.063Z,0.00
2022-10-06T05:48:11.067Z,0.00
2022-10-06T05:49:14.058Z,0.00
2022-10-06T05:50:11.058Z,0.00
2022-10-06T05:51:11.063Z,0.00
2022-10-06T05:52:11.065Z,0.00
2022-10-06T05:53:11.060Z,0.00
2022-10-06T05:54:11.059Z,0.00
2022-10-06T05:55:11.062Z,0.00
2022-10-06T05:56:18.062Z,0.00
2022-10-06T05:57:11.066Z,0.00
2022-10-06T05:58:11.307Z,0.00
2022-10-06T05:59:11.059Z,0.00
2022-10-06T06:00:11.063Z,0.00
2022-10-06T06:01:19.114Z,0.00
2022-10-06T06:02:11.170Z,0.00
2022-10-06T06:03:11.058Z,0.00
2022-10-06T06:04:11.060Z,0.00
2022-10-06T06:05:11.119Z,0.01
2022-10-06T06:06:19.060Z,0.00
2022-10-06T06:07:11.057Z,0.00
2022-10-06T06:08:11.064Z,0.00
2022-10-06T06:09:16.064Z,0.00
2022-10-06T06:10:11.059Z,0.00
2022-10-06T06:11:11.061Z,0.00
2022-10-06T06:12:11.062Z,0.00
2022-10-06T06:13:11.061Z,0.00
2022-10-06T06:14:11.065Z,0.00
2022-10-06T06:15:15.063Z,0.00
2022-10-06T06:16:14.135Z,0.00
2022-10-06T06:17:11.065Z,0.00
2022-10-06T06:18:12.068Z,0.00
2022-10-06T06:19:11.062Z,0.00
2022-10-06T06:20:11.057Z,0.00
2022-10-06T06:21:11.057Z,0.00
2022-10-06T06:22:11.060Z,0.00
2022-10-06T06:23:11.057Z,0.00
2022-10-06T06:24:11.058Z,0.00
2022-10-06T06:25:11.061Z,0.00
2022-10-06T06:26:11.056Z,0.00
2022-10-06T06:27:11.060Z,0.01
2022-10-06T06:28:11.114Z,0.00
2022-10-06T06:29:11.057Z,0.00
2022-10-06T06:30:11.061Z,0.00
2022-10-06T06:31:17.722Z,0.00
2022-10-06T06:32:13.102Z,0.00
2022-10-06T06:33:11.057Z,0.00
2022-10-06T06:34:11.058Z,0.00
2022-10-06T06:35:11.066Z,0.00
2022-10-06T06:36:18.059Z,0.00
2022-10-06T06:37:15.067Z,0.00
2022-10-06T06:38:11.061Z,0.01
2022-10-06T06:39:11.060Z,0.01
2022-10-06T06:40:11.060Z,0.01
2022-10-06T06:41:18.061Z,0.01
2022-10-06T06:42:12.069Z,0.01
2022-10-06T06:43:11.060Z,0.01
2022-10-06T06:44:11.056Z,0.01
2022-10-06T06:45:11.059Z,0.03
2022-10-06T06:46:11.192Z,0.02
2022-10-06T06:47:11.060Z,0.02
2022-10-06T06:48:15.065Z,0.02
2022-10-06T06:49:11.062Z,0.02
2022-10-06T06:50:14.059Z,0.02
2022-10-06T06:51:11.061Z,0.02
2022-10-06T06:52:11.069Z,0.02
2022-10-06T06:53:15.534Z,0.03
2022-10-06T06:54:13.117Z,0.03
2022-10-06T06:55:11.068Z,0.02
2022-10-06T06:56:11.063Z,0.03
2022-10-06T06:57:11.066Z,0.03
2022-10-06T06:58:11.070Z,0.03
2022-10-06T06:59:14.059Z,0.03
2022-10-06T07:00:11.058Z,0.03
2022-10-06T07:01:11.138Z,0.03
2022-10-06T07:02:11.115Z,0.03
2022-10-06T07:03:13.057Z,0.03
2022-10-06T07:04:11.063Z,0.03
2022-10-06T07:05:11.062Z,0.04
2022-10-06T07:06:13.062Z,0.04
2022-10-06T07:07:11.064Z,0.04
2022-10-06T07:08:11.062Z,0.03
2022-10-06T07:09:11.059Z,0.04
2022-10-06T07:10:11.064Z,0.04
2022-10-06T07:11:18.070Z,0.04
2022-10-06T07:12:11.064Z,0.04
2022-10-06T07:13:14.057Z,0.04
2022-10-06T07:14:13.090Z,0.04
2022-10-06T07:15:15.083Z,0.04
2022-10-06T07:16:15.116Z,0.05
2022-10-06T07:17:15.065Z,0.05
2022-10-06T07:18:15.064Z,0.06
2022-10-06T07:19:16.064Z,0.05
2022-10-06T07:20:15.064Z,0.05
2022-10-06T07:21:15.059Z,0.06
2022-10-06T07:22:19.061Z,0.05
2022-10-06T07:23:17.069Z,0.06
2022-10-06T07:24:15.058Z,0.06
2022-10-06T07:25:25.676Z,0.06
2022-10-06T07:26:11.061Z,0.07
2022-10-06T07:27:11.060Z,0.06
2022-10-06T07:28:11.129Z,0.07
2022-10-06T07:29:11.058Z,0.07
2022-10-06T07:30:15.072Z,0.07
2022-10-06T07:31:11.140Z,0.08
2022-10-06T07:32:11.058Z,0.07
2022-10-06T07:33:11.058Z,0.07
2022-10-06T07:34:11.067Z,0.07
2022-10-06T07:35:11.059Z,0.08
2022-10-06T07:36:11.060Z,0.08
2022-10-06T07:37:11.060Z,0.09
2022-10-06T07:38:11.059Z,0.09
2022-10-06T07:39:11.065Z,0.10
2022-10-06T07:40:11.067Z,0.10
2022-10-06T07:41:19.726Z,0.10
2022-10-06T07:42:15.127Z,0.09
2022-10-06T07:43:11.071Z,0.11
2022-10-06T07:44:11.059Z,0.13
2022-10-06T07:45:19.063Z,0.15
2022-10-06T07:46:13.099Z,0.14
2022-10-06T07:47:11.062Z,0.14
2022-10-06T07:48:15.063Z,0.11
2022-10-06T07:49:11.070Z,0.12
2022-10-06T07:50:11.071Z,0.12
2022-10-06T07:51:14.062Z,0.13
2022-10-06T07:52:11.059Z,0.13
2022-10-06T07:53:12.063Z,0.13
2022-10-06T07:54:11.059Z,0.14
2022-10-06T07:55:11.058Z,0.14
2022-10-06T07:56:11.061Z,0.15
2022-10-06T07:57:11.067Z,0.14
2022-10-06T07:58:18.064Z,0.16
2022-10-06T07:59:11.064Z,0.18
2022-10-06T08:00:11.074Z,0.19
2022-10-06T08:01:11.060Z,0.19
2022-10-06T08:02:11.111Z,0.19
2022-10-06T08:03:11.170Z,0.21
2022-10-06T08:04:11.063Z,0.18
2022-10-06T08:05:11.059Z,0.19
2022-10-06T08:06:11.061Z,0.18
2022-10-06T08:07:11.061Z,0.19
2022-10-06T08:08:11.060Z,0.20
2022-10-06T08:09:11.064Z,0.21
2022-10-06T08:10:11.062Z,0.24
2022-10-06T08:11:11.057Z,0.24
2022-10-06T08:12:15.071Z,0.24
2022-10-06T08:13:11.071Z,0.25
2022-10-06T08:14:11.065Z,0.25
2022-10-06T08:15:11.062Z,0.25
2022-10-06T08:16:14.102Z,0.26
2022-10-06T08:17:11.068Z,0.25
2022-10-06T08:18:27.270Z,0.23
2022-10-06T08:19:13.193Z,0.23
2022-10-06T08:20:11.067Z,0.24
2022-10-06T08:21:18.059Z,0.25
2022-10-06T08:22:11.057Z,0.24
2022-10-06T08:23:12.062Z,0.22
2022-10-06T08:24:11.060Z,0.24
2022-10-06T08:25:11.398Z,0.28
2022-10-06T08:26:11.068Z,0.29
2022-10-06T08:27:11.057Z,0.29
2022-10-06T08:28:11.095Z,0.30
2022-10-06T08:29:11.067Z,0.29
2022-10-06T08:30:11.059Z,0.30
2022-10-06T08:31:15.125Z,0.29
2022-10-06T08:32:11.059Z,0.28
2022-10-06T08:33:11.060Z,0.26
2022-10-06T08:34:12.253Z,0.28
2022-10-06T08:35:11.064Z,0.28
2022-10-06T08:36:15.059Z,0.31
2022-10-06T08:37:19.782Z,0.31
2022-10-06T08:38:13.082Z,0.31
2022-10-06T08:39:11.061Z,0.31
2022-10-06T08:40:14.061Z,0.29
2022-10-06T08:41:17.058Z,0.30
2022-10-06T08:42:16.060Z,0.29
2022-10-06T08:43:17.070Z,0.31
2022-10-06T08:44:19.061Z,0.33
2022-10-06T08:45:21.060Z,0.32
2022-10-06T08:46:11.057Z,0.33
2022-10-06T08:47:17.072Z,0.33
2022-10-06T08:48:18.062Z,0.33
2022-10-06T08:49:18.059Z,0.33
2022-10-06T08:50:13.065Z,0.33
2022-10-06T08:51:19.068Z,0.33
2022-10-06T08:52:22.061Z,0.34
2022-10-06T08:53:19.061Z,0.34
2022-10-06T08:54:18.061Z,0.34
2022-10-06T08:55:19.062Z,0.34
2022-10-06T08:56:16.064Z,0.35
2022-10-06T08:57:22.069Z,0.35
2022-10-06T08:58:19.062Z,0.35
2022-10-06T08:59:11.059Z,0.35
2022-10-06T09:00:12.065Z,0.35
2022-10-06T09:01:19.126Z,0.35
2022-10-06T09:02:22.158Z,0.36
2022-10-06T09:03:18.061Z,0.36
2022-10-06T09:04:16.061Z,0.36
2022-10-06T09:05:12.061Z,0.36
2022-10-06T09:06:18.107Z,0.36
2022-10-06T09:07:15.065Z,0.36
2022-10-06T09:08:19.058Z,0.36
2022-10-06T09:09:19.062Z,0.37
2022-10-06T09:10:21.074Z,0.37
2022-10-06T09:11:22.066Z,0.37
2022-10-06T09:12:19.068Z,0.37
2022-10-06T09:13:21.957Z,0.38
2022-10-06T09:14:20.066Z,0.37
2022-10-06T09:15:19.070Z,0.38
2022-10-06T09:16:16.125Z,0.38
2022-10-06T09:17:16.064Z,0.38
2022-10-06T09:18:19.059Z,0.38
2022-10-06T09:19:15.066Z,0.38
2022-10-06T09:20:18.123Z,0.37
2022-10-06T09:21:17.069Z,0.38
2022-10-06T09:22:17.069Z,0.38
2022-10-06T09:23:16.065Z,0.38
2022-10-06T09:24:16.087Z,0.39
2022-10-06T09:25:19.066Z,0.38
2022-10-06T09:26:13.072Z,0.38
2022-10-06T09:27:18.059Z,0.38
2022-10-06T09:28:14.094Z,0.37
2022-10-06T09:29:11.060Z,0.36
2022-10-06T09:30:13.058Z,0.37
2022-10-06T09:31:19.093Z,0.37
2022-10-06T09:32:11.074Z,0.39
2022-10-06T09:33:17.068Z,0.39
2022-10-06T09:34:19.060Z,0.39
2022-10-06T09:35:19.057Z,0.39
2022-10-06T09:36:12.059Z,0.39
2022-10-06T09:37:11.074Z,0.39
2022-10-06T09:38:11.060Z,0.39
2022-10-06T09:39:19.060Z,0.39
2022-10-06T09:40:19.061Z,0.39
2022-10-06T09:41:11.059Z,0.40
2022-10-06T09:42:19.062Z,0.38
2022-10-06T09:43:21.058Z,0.39
2022-10-06T09:44:19.059Z,0.39
2022-10-06T09:45:21.061Z,0.39
2022-10-06T09:46:19.064Z,0.41
2022-10-06T09:47:19.076Z,0.41
2022-10-06T09:48:19.020Z,0.33
2022-10-06T09:49:18.059Z,0.32
2022-10-06T09:50:19.064Z,0.23
2022-10-06T09:51:15.067Z,0.35
2022-10-06T09:52:13.063Z,0.23
2022-10-06T09:53:14.061Z,0.17
2022-10-06T09:54:14.063Z,0.18
2022-10-06T09:55:15.063Z,0.15
2022-10-06T09:56:15.066Z,0.15
2022-10-06T09:57:19.060Z,0.18
2022-10-06T09:58:18.064Z,0.41
2022-10-06T09:59:19.064Z,0.44
2022-10-06T10:00:19.075Z,0.42
2022-10-06T10:01:11.144Z,0.44
2022-10-06T10:02:19.063Z,0.31
2022-10-06T10:03:11.126Z,0.41
2022-10-06T10:04:20.977Z,0.44
2022-10-06T10:05:22.354Z,0.47
2022-10-06T10:06:15.061Z,0.37
2022-10-06T10:07:15.061Z,0.41
2022-10-06T10:08:23.169Z,0.43
2022-10-06T10:09:22.029Z,0.37
2022-10-06T10:10:21.065Z,0.40
2022-10-06T10:11:19.061Z,0.42
2022-10-06T10:12:15.091Z,0.42
2022-10-06T10:13:18.065Z,0.41
2022-10-06T10:14:18.068Z,0.22
2022-10-06T10:15:19.065Z,0.35
2022-10-06T10:16:11.103Z,0.25
2022-10-06T10:17:18.064Z,0.21
2022-10-06T10:18:15.069Z,0.31
2022-10-06T10:19:19.074Z,0.24
2022-10-06T10:20:19.068Z,0.29
2022-10-06T10:21:12.059Z,0.39
2022-10-06T10:22:19.061Z,0.38
2022-10-06T10:23:20.060Z,0.41
2022-10-06T10:24:18.066Z,0.39
2022-10-06T10:25:21.060Z,0.27
2022-10-06T10:26:19.057Z,0.35
2022-10-06T10:27:21.088Z,0.21
2022-10-06T10:28:19.093Z,0.16
2022-10-06T10:29:19.065Z,0.21
2022-10-06T10:30:11.067Z,0.14
2022-10-06T10:31:19.137Z,0.36
2022-10-06T10:32:17.061Z,0.39
2022-10-06T10:33:19.065Z,0.26
2022-10-06T10:34:24.219Z,0.36
2022-10-06T10:35:19.063Z,0.40
2022-10-06T10:36:12.057Z,0.27
2022-10-06T10:37:17.062Z,0.37
2022-10-06T10:38:20.069Z,0.38
2022-10-06T10:39:15.097Z,0.17
2022-10-06T10:40:19.059Z,0.14
2022-10-06T10:41:19.056Z,0.30
2022-10-06T10:42:19.064Z,0.31
2022-10-06T10:43:19.078Z,0.17
2022-10-06T10:44:14.062Z,0.14
2022-10-06T10:45:20.060Z,0.15
2022-10-06T10:46:18.125Z,0.26
2022-10-06T10:47:16.070Z,0.28
2022-10-06T10:48:20.062Z,0.28
2022-10-06T10:49:19.063Z,0.28
2022-10-06T10:50:21.059Z,0.31
2022-10-06T10:51:19.063Z,0.31
2022-10-06T10:52:17.069Z,0.30
2022-10-06T10:53:20.092Z,0.33
2022-10-06T10:54:18.060Z,0.33
2022-10-06T10:55:21.065Z,0.35
2022-10-06T10:56:11.058Z,0.37
2022-10-06T10:57:18.096Z,0.37
2022-10-06T10:58:19.065Z,0.37
2022-10-06T10:59:19.060Z,0.25
2022-10-06T11:00:19.066Z,0.34
2022-10-06T11:01:19.119Z,0.39
2022-10-06T11:02:18.105Z,0.21
2022-10-06T11:03:11.065Z,0.40
2022-10-06T11:04:12.065Z,0.40
2022-10-06T11:05:24.114Z,0.38
2022-10-06T11:06:21.143Z,0.24
2022-10-06T11:07:19.072Z,0.24
2022-10-06T11:08:19.067Z,0.26
2022-10-06T11:09:17.096Z,0.22
2022-10-06T11:10:20.097Z,0.30
2022-10-06T11:11:19.068Z,0.22
2022-10-06T11:12:23.066Z,0.21
2022-10-06T11:13:19.067Z,0.21
2022-10-06T11:14:18.064Z,0.18
2022-10-06T11:15:21.068Z,0.23
2022-10-06T11:16:23.167Z,0.21
2022-10-06T11:17:21.068Z,0.21
2022-10-06T11:18:21.653Z,0.21
2022-10-06T11:19:19.068Z,0.20
2022-10-06T11:20:20.063Z,0.18
2022-10-06T11:21:19.056Z,0.19
2022-10-06T11:22:19.059Z,0.19
2022-10-06T11:23:19.056Z,0.17
2022-10-06T11:24:21.071Z,0.15
2022-10-06T11:25:19.057Z,0.17
2022-10-06T11:26:21.056Z,0.20
2022-10-06T11:27:19.055Z,0.23
2022-10-06T11:28:20.136Z,0.25
2022-10-06T11:29:19.061Z,0.25
2022-10-06T11:30:19.069Z,0.24
2022-10-06T11:31:22.610Z,0.23
2022-10-06T11:32:21.059Z,0.23
2022-10-06T11:33:19.061Z,0.29
2022-10-06T11:34:12.063Z,0.24
2022-10-06T11:35:21.061Z,0.21
2022-10-06T11:36:17.057Z,0.26
2022-10-06T11:37:19.058Z,0.22
2022-10-06T11:38:21.064Z,0.20
2022-10-06T11:39:19.065Z,0.28
2022-10-06T11:40:21.069Z,0.31
2022-10-06T11:41:21.096Z,0.28
2022-10-06T11:42:19.185Z,0.31
2022-10-06T11:43:21.063Z,0.29
2022-10-06T11:44:21.061Z,0.32
2022-10-06T11:45:17.069Z,0.32
2022-10-06T11:46:19.148Z,0.32
2022-10-06T11:47:14.060Z,0.30
2022-10-06T11:48:19.061Z,0.27
2022-10-06T11:49:21.068Z,0.32
2022-10-06T11:50:19.065Z,0.33
2022-10-06T11:51:21.060Z,0.35
2022-10-06T11:52:21.060Z,0.29
2022-10-06T11:53:19.076Z,0.27
2022-10-06T11:54:19.065Z,0.32
2022-10-06T11:55:15.073Z,0.27
2022-10-06T11:56:21.061Z,0.28
2022-10-06T11:57:19.063Z,0.30
2022-10-06T11:58:37.538Z,0.30
2022-10-06T11:59:20.085Z,0.28
2022-10-06T12:00:19.065Z,0.28
2022-10-06T12:01:15.061Z,0.32
2022-10-06T12:02:19.258Z,0.33
2022-10-06T12:03:19.143Z,0.30
2022-10-06T12:04:15.072Z,0.32
2022-10-06T12:05:54.873Z,0.27
2022-10-06T12:06:21.077Z,0.28
2022-10-06T12:07:11.070Z,0.28
2022-10-06T12:08:15.074Z,0.29
2022-10-06T12:09:19.066Z,0.29
2022-10-06T12:10:19.065Z,0.33
2022-10-06T12:11:19.071Z,0.31
2022-10-06T12:12:21.064Z,0.38
2022-10-06T12:14:01.550Z,0.37
2022-10-06T12:16:07.001Z,0.30
2022-10-06T12:17:23.072Z,0.29
2022-10-06T12:18:19.071Z,0.28
2022-10-06T12:19:19.069Z,0.34
2022-10-06T12:20:21.079Z,0.30
2022-10-06T12:21:19.064Z,0.33
2022-10-06T12:22:21.057Z,0.26
2022-10-06T12:23:18.059Z,0.25
2022-10-06T12:24:19.058Z,0.22
2022-10-06T12:25:21.058Z,0.20
2022-10-06T12:26:18.059Z,0.22
2022-10-06T12:27:22.042Z,0.29
2022-10-06T12:28:21.384Z,0.24
2022-10-06T12:29:19.058Z,0.27
2022-10-06T12:30:19.060Z,0.27
2022-10-06T12:31:19.120Z,0.24
2022-10-06T12:32:23.058Z,0.23
2022-10-06T12:33:18.061Z,0.20
2022-10-06T12:34:19.057Z,0.24
2022-10-06T12:35:21.058Z,0.23
2022-10-06T12:36:18.061Z,0.26
2022-10-06T12:37:19.060Z,0.27
2022-10-06T12:38:19.058Z,0.25
2022-10-06T12:39:19.055Z,0.25
2022-10-06T12:40:19.061Z,0.23
2022-10-06T12:41:13.065Z,0.30
2022-10-06T12:42:19.061Z,0.26
2022-10-06T12:43:21.059Z,0.25
2022-10-06T12:44:19.073Z,0.23
2022-10-06T12:45:16.061Z,0.21
2022-10-06T12:46:19.103Z,0.24
2022-10-06T12:47:21.059Z,0.21
2022-10-06T12:48:16.059Z,0.21
2022-10-06T12:49:19.061Z,0.21
2022-10-06T12:50:18.073Z,0.23
2022-10-06T12:51:19.148Z,0.22
2022-10-06T12:52:19.059Z,0.21
2022-10-06T12:53:19.057Z,0.20
2022-10-06T12:54:21.065Z,0.19
2022-10-06T12:55:19.069Z,0.20
2022-10-06T12:56:19.065Z,0.23
2022-10-06T12:57:17.061Z,0.24
2022-10-06T12:58:18.059Z,0.23
2022-10-06T12:59:21.065Z,0.22
2022-10-06T13:00:19.095Z,0.20
2022-10-06T13:01:14.104Z,0.18
2022-10-06T13:02:15.100Z,0.17
2022-10-06T13:03:19.062Z,0.17
2022-10-06T13:04:19.077Z,0.17
2022-10-06T13:05:13.064Z,0.17
2022-10-06T13:06:11.062Z,0.17
2022-10-06T13:07:19.066Z,0.18
2022-10-06T13:08:21.068Z,0.17
2022-10-06T13:09:15.064Z,0.17
2022-10-06T13:10:19.091Z,0.18
2022-10-06T13:11:19.112Z,0.17
2022-10-06T13:12:19.108Z,0.16
2022-10-06T13:13:19.067Z,0.15
2022-10-06T13:14:12.065Z,0.15
2022-10-06T13:15:17.138Z,0.16
2022-10-06T13:16:11.068Z,0.18
2022-10-06T13:17:11.105Z,0.18
2022-10-06T13:18:15.063Z,0.20
2022-10-06T13:19:21.066Z,0.22
2022-10-06T13:20:21.069Z,0.25